createdAt,value
2018-04-10T00:00:51.268Z,25.48
2018-04-10T00:01:53.742Z,23.80
2018-04-10T00:02:56.233Z,24.98
2018-04-10T00:03:58.738Z,23.27
2018-04-10T00:05:02.448Z,25.10
2018-04-10T00:06:04.950Z,25.55
2018-04-10T00:07:07.483Z,25.23
2018-04-10T00:08:10.131Z,24.33
2018-04-10T00:09:14.182Z,23.12
2018-04-10T00:10:16.670Z,25.05
2018-04-10T00:11:19.162Z,24.40
2018-04-10T00:12:21.660Z,24.17
2018-04-10T00:13:24.920Z,22.98
2018-04-10T00:14:27.405Z,24.33
2018-04-10T00:15:30.682Z,25.05
2018-04-10T00:16:33.169Z,24.40
2018-04-10T00:17:36.412Z,23.95
2018-04-10T00:18:38.899Z,23.77
2018-04-10T00:19:41.395Z,23.62
2018-04-10T00:20:44.663Z,22.90
2018-04-10T00:21:47.157Z,23.95
2018-04-10T00:22:50.410Z,23.30
2018-04-10T00:23:52.882Z,22.92
2018-04-10T00:24:55.396Z,23.60
2018-04-10T00:25:58.651Z,23.20
2018-04-10T00:27:01.147Z,22.00
2018-04-10T00:28:04.394Z,23.85
2018-04-10T00:29:07.693Z,23.65
2018-04-10T00:30:10.993Z,21.23
2018-04-10T00:31:13.493Z,23.45
2018-04-10T00:32:16.746Z,21.90
2018-04-10T00:33:19.220Z,21.52
2018-04-10T00:34:21.712Z,22.80
2018-04-10T00:35:24.974Z,22.73
2018-04-10T00:36:27.478Z,21.45
2018-04-10T00:37:29.983Z,22.10
2018-04-10T00:38:32.475Z,22.25
2018-04-10T00:39:34.956Z,20.05
2018-04-10T00:40:37.436Z,20.20
2018-04-10T00:41:40.720Z,20.77
2018-04-10T00:42:43.204Z,20.95
2018-04-10T00:43:46.455Z,21.02
2018-04-10T00:44:48.936Z,21.77
2018-04-10T00:45:51.439Z,20.33
2018-04-10T00:46:54.718Z,21.40
2018-04-10T00:47:57.235Z,19.80
2018-04-10T00:48:59.712Z,19.70
2018-04-10T00:50:02.192Z,20.23
2018-04-10T00:51:04.688Z,20.15
2018-04-10T00:52:07.188Z,20.45
2018-04-10T00:53:22.331Z,20.70
2018-04-10T00:54:24.810Z,20.88
2018-04-10T00:55:27.303Z,19.23
2018-04-10T00:56:29.795Z,19.33
2018-04-10T00:57:32.298Z,19.80
2018-04-10T00:58:34.800Z,20.35
2018-04-10T00:59:38.037Z,20.25
2018-04-10T01:00:40.520Z,20.27
2018-04-10T01:01:43.008Z,19.45
2018-04-10T01:02:45.489Z,19.35
2018-04-10T01:03:47.980Z,20.02
2018-04-10T01:04:51.220Z,20.50
2018-04-10T01:05:53.691Z,19.60
2018-04-10T01:06:56.190Z,20.77
2018-04-10T01:07:58.683Z,20.90
2018-04-10T01:09:01.166Z,20.95
2018-04-10T01:10:03.644Z,21.87
2018-04-10T01:11:06.154Z,19.67
2018-04-10T01:12:08.625Z,22.55
2018-04-10T01:13:11.183Z,21.50
2018-04-10T01:14:13.658Z,20.55
2018-04-10T01:15:16.140Z,21.62
2018-04-10T01:16:18.834Z,23.70
2018-04-10T01:17:22.084Z,21.73
2018-04-10T01:18:24.625Z,21.92
2018-04-10T01:19:27.108Z,21.30
2018-04-10T01:20:29.588Z,20.80
2018-04-10T01:21:32.070Z,22.58
2018-04-10T01:22:34.584Z,21.30
2018-04-10T01:23:37.821Z,22.52
2018-04-10T01:24:40.294Z,21.67
2018-04-10T01:25:42.766Z,20.35
2018-04-10T01:26:45.264Z,21.37
2018-04-10T01:27:47.749Z,22.52
2018-04-10T01:28:50.253Z,21.87
2018-04-10T01:29:52.758Z,21.60
2018-04-10T01:30:55.247Z,22.52
2018-04-10T01:31:57.719Z,21.30
2018-04-10T01:33:00.202Z,20.73
2018-04-10T01:34:03.465Z,21.52
2018-04-10T01:35:05.950Z,21.83
2018-04-10T01:36:09.201Z,21.33
2018-04-10T01:37:11.697Z,21.33
2018-04-10T01:38:14.184Z,22.90
2018-04-10T01:39:17.450Z,21.30
2018-04-10T01:40:19.933Z,20.85
2018-04-10T01:41:22.404Z,19.77
2018-04-10T01:42:25.594Z,20.75
2018-04-10T01:43:28.855Z,19.23
2018-04-10T01:44:31.348Z,19.80
2018-04-10T01:45:33.838Z,19.70
2018-04-10T01:46:37.098Z,21.48
2018-04-10T01:47:39.574Z,19.17
2018-04-10T01:48:42.068Z,19.80
2018-04-10T01:49:45.334Z,19.10
2018-04-10T01:50:47.826Z,19.73
2018-04-10T01:51:51.065Z,20.52
2018-04-10T01:52:53.549Z,19.37
2018-04-10T01:53:56.038Z,19.35
2018-04-10T01:54:58.522Z,18.42
2018-04-10T01:56:01.764Z,19.30
2018-04-10T01:57:04.241Z,18.35
2018-04-10T01:58:06.734Z,19.52
2018-04-10T01:59:09.215Z,18.58
2018-04-10T02:00:13.258Z,19.20
2018-04-10T02:01:15.734Z,19.12
2018-04-10T02:02:18.249Z,20.35
2018-04-10T02:03:20.722Z,20.35
2018-04-10T02:04:23.220Z,19.80
2018-04-10T02:05:26.454Z,18.98
2018-04-10T02:06:28.921Z,19.33
2018-04-10T02:07:31.406Z,19.10
2018-04-10T02:08:33.876Z,19.23
2018-04-10T02:09:36.433Z,20.62
2018-04-10T02:10:38.969Z,19.77
2018-04-10T02:11:41.516Z,19.75
2018-04-10T02:12:44.816Z,19.90
2018-04-10T02:13:47.346Z,20.95
2018-04-10T02:14:49.891Z,20.80
2018-04-10T02:15:52.417Z,22.17
2018-04-10T02:16:55.722Z,20.00
2018-04-10T02:17:58.242Z,20.12
2018-04-10T02:19:00.768Z,19.60
2018-04-10T02:20:03.313Z,20.15
2018-04-10T02:21:05.869Z,19.15
2018-04-10T02:22:08.397Z,19.48
2018-04-10T02:23:10.967Z,20.40
2018-04-10T02:24:13.491Z,20.45
2018-04-10T02:25:16.755Z,20.17
2018-04-10T02:26:19.277Z,19.85
2018-04-10T02:27:22.565Z,20.60
2018-04-10T02:28:27.115Z,20.00
2018-04-10T02:29:29.678Z,19.27
2018-04-10T02:30:32.715Z,19.70
2018-04-10T02:31:35.249Z,19.00
2018-04-10T02:32:37.774Z,19.40
2018-04-10T02:33:41.061Z,19.23
2018-04-10T02:34:44.340Z,20.10
2018-04-10T02:35:46.902Z,19.45
2018-04-10T02:36:49.424Z,20.05
2018-04-10T02:37:51.962Z,19.87
2018-04-10T02:38:55.268Z,19.10
2018-04-10T02:39:58.560Z,20.90
2018-04-10T02:41:01.101Z,20.80
2018-04-10T02:42:03.651Z,20.15
2018-04-10T02:43:06.178Z,20.30
2018-04-10T02:44:08.702Z,20.95
2018-04-10T02:45:11.321Z,19.52
2018-04-10T02:46:13.858Z,19.60
2018-04-10T02:47:16.383Z,21.55
2018-04-10T02:48:18.932Z,20.73
2018-04-10T02:49:22.247Z,20.88
2018-04-10T02:50:24.780Z,21.25
2018-04-10T02:51:28.081Z,21.85
2018-04-10T02:52:30.605Z,19.52
2018-04-10T02:53:33.127Z,21.85
2018-04-10T02:54:35.675Z,19.80
2018-04-10T02:55:38.206Z,20.30
2018-04-10T02:56:40.752Z,21.65
2018-04-10T02:57:43.275Z,21.45
2018-04-10T02:58:45.805Z,20.92
2018-04-10T02:59:48.331Z,20.58
2018-04-10T03:00:50.848Z,21.27
2018-04-10T03:01:53.376Z,20.75
2018-04-10T03:02:56.677Z,19.87
2018-04-10T03:03:59.201Z,20.73
2018-04-10T03:05:02.681Z,21.55
2018-04-10T03:06:05.203Z,22.62
2018-04-10T03:07:08.505Z,19.80
2018-04-10T03:08:11.043Z,21.70
2018-04-10T03:09:13.577Z,21.62
2018-04-10T03:10:16.097Z,21.40
2018-04-10T03:11:18.632Z,22.20
2018-04-10T03:12:21.165Z,22.27
2018-04-10T03:13:24.451Z,21.95
2018-04-10T03:14:28.334Z,22.58
2018-04-10T03:15:30.857Z,21.75
2018-04-10T03:16:33.381Z,23.30
2018-04-10T03:17:35.927Z,21.90
2018-04-10T03:18:38.448Z,22.62
2018-04-10T03:19:40.973Z,23.70
2018-04-10T03:20:43.509Z,22.52
2018-04-10T03:21:46.037Z,23.62
2018-04-10T03:22:49.336Z,23.45
2018-04-10T03:23:52.633Z,20.73
2018-04-10T03:24:55.987Z,22.85
2018-04-10T03:25:58.513Z,23.50
2018-04-10T03:27:01.045Z,23.45
2018-04-10T03:28:03.592Z,23.48
2018-04-10T03:29:06.129Z,23.00
2018-04-10T03:30:08.668Z,24.73
2018-04-10T03:31:11.965Z,24.08
2018-04-10T03:32:15.261Z,24.20
2018-04-10T03:33:17.805Z,25.00
2018-04-10T03:34:20.334Z,26.55
2018-04-10T03:35:23.618Z,24.52
2018-04-10T03:36:26.151Z,23.55
2018-04-10T03:37:28.669Z,23.42
2018-04-10T03:38:31.208Z,23.73
2018-04-10T03:39:33.732Z,22.58
2018-04-10T03:40:36.471Z,25.10
2018-04-10T03:41:38.998Z,23.27
2018-04-10T03:42:41.522Z,24.67
2018-04-10T03:43:44.051Z,24.02
2018-04-10T03:44:47.345Z,23.92
2018-04-10T03:45:50.636Z,25.12
2018-04-10T03:46:53.952Z,26.15
2018-04-10T03:47:56.526Z,25.12
2018-04-10T03:48:59.047Z,24.40
2018-04-10T03:50:01.581Z,23.35
2018-04-10T03:51:04.063Z,24.30
2018-04-10T03:52:06.534Z,24.58
2018-04-10T03:53:09.039Z,23.20
2018-04-10T03:54:12.162Z,24.85
2018-04-10T03:55:14.639Z,25.35
2018-04-10T03:56:17.117Z,22.62
2018-04-10T03:57:19.601Z,23.75
2018-04-10T03:58:22.087Z,24.85
2018-04-10T03:59:24.563Z,24.33
2018-04-10T04:00:27.047Z,23.83
2018-04-10T04:01:29.534Z,25.80
2018-04-10T04:02:32.793Z,24.15
2018-04-10T04:03:35.287Z,26.85
2018-04-10T04:04:39.339Z,28.27
2018-04-10T04:05:41.822Z,26.12
2018-04-10T04:06:44.295Z,24.98
2018-04-10T04:07:46.770Z,25.85
2018-04-10T04:08:49.264Z,26.00
2018-04-10T04:09:51.747Z,27.62
2018-04-10T04:10:54.983Z,25.83
2018-04-10T04:11:57.469Z,25.67
2018-04-10T04:12:59.944Z,25.88
2018-04-10T04:14:02.477Z,25.67
2018-04-10T04:15:04.963Z,24.67
2018-04-10T04:17:37.246Z,24.70
2018-04-10T04:18:52.320Z,26.12
2018-04-10T04:20:07.568Z,24.25
2018-04-10T04:21:22.123Z,25.27
2018-04-10T04:22:36.534Z,26.05
2018-04-10T04:23:39.039Z,24.25
2018-04-10T04:24:41.579Z,25.08
2018-04-10T04:25:44.076Z,24.77
2018-04-10T04:26:47.348Z,24.83
2018-04-10T04:27:49.856Z,23.77
2018-04-10T04:28:53.122Z,23.02
2018-04-10T04:29:55.659Z,26.12
2018-04-10T04:30:58.173Z,25.00
2018-04-10T04:32:01.456Z,25.70
2018-04-10T04:33:04.741Z,22.77
2018-04-10T04:34:07.246Z,25.80
2018-04-10T04:35:09.772Z,24.33
2018-04-10T04:36:12.397Z,23.60
2018-04-10T04:37:14.892Z,24.40
2018-04-10T04:38:17.413Z,24.83
2018-04-10T04:39:19.937Z,26.65
2018-04-10T04:40:22.465Z,24.55
2018-04-10T04:41:25.726Z,24.23
2018-04-10T04:42:28.230Z,26.65
2018-04-10T04:43:30.809Z,26.00
2018-04-10T04:44:33.350Z,24.77
2018-04-10T04:45:36.637Z,24.75
2018-04-10T04:46:39.927Z,24.95
2018-04-10T04:47:43.191Z,26.65
2018-04-10T04:48:45.696Z,24.87
2018-04-10T04:49:48.973Z,24.77
2018-04-10T04:50:52.234Z,25.25
2018-04-10T04:51:54.727Z,26.30
2018-04-10T04:52:58.005Z,26.67
2018-04-10T04:54:00.565Z,23.90
2018-04-10T04:55:03.109Z,23.30
2018-04-10T04:56:05.634Z,25.27
2018-04-10T04:57:08.908Z,25.30
2018-04-10T04:58:11.464Z,23.70
2018-04-10T04:59:13.968Z,23.50
2018-04-10T05:00:17.260Z,23.45
2018-04-10T05:01:20.564Z,25.10
2018-04-10T05:02:23.084Z,25.80
2018-04-10T05:03:25.577Z,23.45
2018-04-10T05:04:28.844Z,24.50
2018-04-10T05:05:31.362Z,26.23
2018-04-10T05:06:33.868Z,24.42
2018-04-10T05:07:36.397Z,23.77
2018-04-10T05:08:38.988Z,22.23
2018-04-10T05:09:41.491Z,24.08
2018-04-10T05:10:43.996Z,21.90
2018-04-10T05:11:47.300Z,23.12
2018-04-10T05:12:49.824Z,26.00
2018-04-10T05:13:52.333Z,22.52
2018-04-10T05:14:55.646Z,23.20
2018-04-10T05:15:58.140Z,23.87
2018-04-10T05:17:00.649Z,23.00
2018-04-10T05:18:03.158Z,22.77
2018-04-10T05:19:05.665Z,21.75
2018-04-10T05:20:08.194Z,24.15
2018-04-10T05:21:11.610Z,21.27
2018-04-10T05:22:14.158Z,23.80
2018-04-10T05:23:17.251Z,23.85
2018-04-10T05:24:19.762Z,23.77
2018-04-10T05:25:22.262Z,23.52
2018-04-10T05:26:25.535Z,22.45
2018-04-10T05:27:28.053Z,23.87
2018-04-10T05:28:30.574Z,24.08
2018-04-10T05:29:33.871Z,22.40
2018-04-10T05:30:37.139Z,23.25
2018-04-10T05:31:39.633Z,23.77
2018-04-10T05:32:42.916Z,20.90
2018-04-10T05:33:46.385Z,23.38
2018-04-10T05:34:48.914Z,25.52
2018-04-10T05:35:51.424Z,22.42
2018-04-10T05:36:53.916Z,23.35
2018-04-10T05:37:57.214Z,23.58
2018-04-10T05:39:00.473Z,23.08
2018-04-10T05:40:02.993Z,22.83
2018-04-10T05:41:05.487Z,22.95
2018-04-10T05:42:07.990Z,23.83
2018-04-10T05:43:10.581Z,23.92
2018-04-10T05:44:14.129Z,24.73
2018-04-10T05:45:16.703Z,25.23
2018-04-10T05:46:19.212Z,24.20
2018-04-10T05:47:21.710Z,22.87
2018-04-10T05:48:24.237Z,22.83
2018-04-10T05:49:26.744Z,23.60
2018-04-10T05:50:29.256Z,22.27
2018-04-10T05:51:31.752Z,23.90
2018-04-10T05:52:34.304Z,22.58
2018-04-10T05:53:36.825Z,23.08
2018-04-10T05:54:40.100Z,22.30
2018-04-10T05:55:43.380Z,20.83
2018-04-10T05:56:46.682Z,22.10
2018-04-10T05:57:49.997Z,22.05
2018-04-10T05:58:52.544Z,22.02
2018-04-10T05:59:55.819Z,23.75
2018-04-10T06:00:59.120Z,21.65
2018-04-10T06:02:02.400Z,21.98
2018-04-10T06:03:05.657Z,21.60
2018-04-10T06:04:08.170Z,21.92
2018-04-10T06:05:11.497Z,22.23
2018-04-10T06:06:14.112Z,21.00
2018-04-10T06:07:16.655Z,22.98
2018-04-10T06:08:19.186Z,23.15
2018-04-10T06:09:21.718Z,22.35
2018-04-10T06:10:24.211Z,22.90
2018-04-10T06:11:27.483Z,22.05
2018-04-10T06:12:31.490Z,22.80
2018-04-10T06:13:33.989Z,21.95
2018-04-10T06:14:36.500Z,21.75
2018-04-10T06:15:38.994Z,21.90
2018-04-10T06:16:41.509Z,21.85
2018-04-10T06:17:44.006Z,20.33
2018-04-10T06:18:46.525Z,22.85
2018-04-10T06:19:49.812Z,22.48
2018-04-10T06:20:53.077Z,21.12
2018-04-10T06:21:55.581Z,21.30
2018-04-10T06:22:58.082Z,22.48
2018-04-10T06:24:00.599Z,21.52
2018-04-10T06:25:03.901Z,20.05
2018-04-10T06:26:06.404Z,19.95
2018-04-10T06:27:08.911Z,21.17
2018-04-10T06:28:11.536Z,21.23
2018-04-10T06:29:14.097Z,21.23
2018-04-10T06:30:16.609Z,18.90
2018-04-10T06:31:19.114Z,19.23
2018-04-10T06:32:21.603Z,21.00
2018-04-10T06:33:24.146Z,18.93
2018-04-10T06:34:26.613Z,18.67
2018-04-10T06:35:29.138Z,19.30
2018-04-10T06:36:31.654Z,20.10
2018-04-10T06:37:34.148Z,19.80
2018-04-10T06:38:37.412Z,20.57
2018-04-10T06:39:39.925Z,19.27
2018-04-10T06:40:42.436Z,18.83
2018-04-10T06:41:44.963Z,18.93
2018-04-10T06:42:47.474Z,19.33
2018-04-10T06:43:50.028Z,19.33
2018-04-10T06:44:52.537Z,20.27
2018-04-10T06:45:55.072Z,20.20
2018-04-10T06:46:57.590Z,19.10
2018-04-10T06:48:01.705Z,19.00
2018-04-10T06:49:04.990Z,19.20
2018-04-10T06:50:08.280Z,21.07
2018-04-10T06:51:11.641Z,18.83
2018-04-10T06:52:14.963Z,19.70
2018-04-10T06:53:17.600Z,19.00
2018-04-10T06:54:20.101Z,19.30
2018-04-10T06:55:23.365Z,19.30
2018-04-10T06:56:25.874Z,19.37
2018-04-10T06:57:29.167Z,20.60
2018-04-10T06:58:31.723Z,19.77
2018-04-10T06:59:35.000Z,19.17
2018-04-10T07:00:37.497Z,19.70
2018-04-10T07:01:40.032Z,19.67
2018-04-10T07:02:42.551Z,18.17
2018-04-10T07:03:45.048Z,18.43
2018-04-10T07:04:47.563Z,20.00
2018-04-10T07:05:50.850Z,19.57
2018-04-10T07:06:54.170Z,18.33
2018-04-10T07:07:56.735Z,18.17
2018-04-10T07:08:59.188Z,18.50
2018-04-10T07:10:02.482Z,18.00
2018-04-10T07:11:05.751Z,18.80
2018-04-10T07:12:09.003Z,19.17
2018-04-10T07:13:11.963Z,17.60
2018-04-10T07:14:14.457Z,18.67
2018-04-10T07:15:16.987Z,17.90
2018-04-10T07:16:19.545Z,16.37
2018-04-10T07:17:22.104Z,17.47
2018-04-10T07:18:24.601Z,18.00
2018-04-10T07:19:27.133Z,18.67
2018-04-10T07:20:29.639Z,17.60
2018-04-10T07:21:32.159Z,18.37
2018-04-10T07:22:34.664Z,17.77
2018-04-10T07:23:37.940Z,17.27
2018-04-10T07:24:40.442Z,18.07
2018-04-10T07:25:42.940Z,18.40
2018-04-10T07:26:45.463Z,16.63
2018-04-10T07:27:48.792Z,17.10
2018-04-10T07:28:51.269Z,18.97
2018-04-10T07:29:53.808Z,17.40
2018-04-10T07:30:56.340Z,18.00
2018-04-10T07:31:59.615Z,18.37
2018-04-10T07:33:02.121Z,20.20
2018-04-10T07:34:05.658Z,17.20
2018-04-10T07:35:08.156Z,17.80
2018-04-10T07:36:10.948Z,18.30
2018-04-10T07:37:13.541Z,16.77
2018-04-10T07:38:16.823Z,18.00
2018-04-10T07:39:20.097Z,17.23
2018-04-10T07:40:22.613Z,17.40
2018-04-10T07:41:25.121Z,16.67
2018-04-10T07:42:27.645Z,16.77
2018-04-10T07:43:30.173Z,16.90
2018-04-10T07:44:32.712Z,17.67
2018-04-10T07:45:35.211Z,18.33
2018-04-10T07:46:37.711Z,18.73
2018-04-10T07:47:40.209Z,17.23
2018-04-10T07:48:42.726Z,17.47
2018-04-10T07:50:54.189Z,18.07
2018-04-10T07:51:56.686Z,17.20
2018-04-10T07:52:59.182Z,17.17
2018-04-10T07:54:01.697Z,18.57
2018-04-10T07:55:04.272Z,19.07
2018-04-10T07:56:06.792Z,17.20
2018-04-10T07:57:10.140Z,17.50
2018-04-10T07:58:12.899Z,17.77
2018-04-10T07:59:15.419Z,17.37
2018-04-10T08:00:18.700Z,18.10
2018-04-10T08:01:21.196Z,16.60
2018-04-10T08:02:23.702Z,18.47
2018-04-10T08:03:26.210Z,19.60
2018-04-10T08:04:28.711Z,18.97
2018-04-10T08:05:31.216Z,18.53
2018-04-10T08:06:33.711Z,18.87
2018-04-10T08:07:36.211Z,18.70
2018-04-10T08:08:39.487Z,19.40
2018-04-10T08:09:42.774Z,19.37
2018-04-10T08:10:46.043Z,18.87
2018-04-10T08:11:48.576Z,21.00
2018-04-10T08:12:51.090Z,18.50
2018-04-10T08:13:53.583Z,19.53
2018-04-10T08:14:56.892Z,20.10
2018-04-10T08:15:59.384Z,19.90
2018-04-10T08:17:01.884Z,19.43
2018-04-10T08:18:05.167Z,20.57
2018-04-10T08:19:07.662Z,21.03
2018-04-10T08:20:11.160Z,20.57
2018-04-10T08:21:14.413Z,21.30
2018-04-10T08:22:17.213Z,20.83
2018-04-10T08:23:19.745Z,21.13
2018-04-10T08:24:22.253Z,21.20
2018-04-10T08:25:24.769Z,20.00
2018-04-10T08:26:27.283Z,21.33
2018-04-10T08:27:29.807Z,19.93
2018-04-10T08:28:32.298Z,20.60
2018-04-10T08:29:34.807Z,21.53
2018-04-10T08:30:38.136Z,20.07
2018-04-10T08:31:40.633Z,20.77
2018-04-10T08:32:43.136Z,20.20
2018-04-10T08:33:45.916Z,21.13
2018-04-10T08:34:49.228Z,19.47
2018-04-10T08:35:51.723Z,21.40
2018-04-10T08:36:54.226Z,21.47
2018-04-10T08:37:56.767Z,21.27
2018-04-10T08:38:59.263Z,20.53
2018-04-10T08:40:01.792Z,22.37
2018-04-10T08:41:04.298Z,21.23
2018-04-10T08:42:06.817Z,21.90
2018-04-10T08:43:09.382Z,23.50
2018-04-10T08:44:12.058Z,20.17
2018-04-10T08:45:15.344Z,23.43
2018-04-10T08:46:18.679Z,23.50
2018-04-10T08:47:21.188Z,22.87
2018-04-10T08:48:24.462Z,20.87
2018-04-10T08:49:26.975Z,21.50
2018-04-10T08:50:29.532Z,20.00
2018-04-10T08:51:32.795Z,20.23
2018-04-10T08:52:36.063Z,21.83
2018-04-10T08:53:38.553Z,19.97
2018-04-10T08:54:41.079Z,21.80
2018-04-10T08:55:43.569Z,22.20
2018-04-10T08:56:46.108Z,19.20
2018-04-10T08:57:48.674Z,20.47
2018-04-10T08:58:51.174Z,20.60
2018-04-10T08:59:53.689Z,20.67
2018-04-10T09:00:56.960Z,19.50
2018-04-10T09:01:59.469Z,19.80
2018-04-10T09:03:01.954Z,21.17
2018-04-10T09:04:04.444Z,21.37
2018-04-10T09:05:06.970Z,22.50
2018-04-10T09:06:10.273Z,20.73
2018-04-10T09:07:12.830Z,19.60
2018-04-10T09:08:16.110Z,21.73
2018-04-10T09:09:19.401Z,20.10
2018-04-10T09:10:22.719Z,21.23
2018-04-10T09:11:25.238Z,20.13
2018-04-10T09:12:27.733Z,20.50
2018-04-10T09:13:31.018Z,20.00
2018-04-10T09:14:33.530Z,20.60
2018-04-10T09:15:36.062Z,21.10
2018-04-10T09:16:39.372Z,19.90
2018-04-10T09:17:41.886Z,19.53
2018-04-10T09:18:44.403Z,19.20
2018-04-10T09:19:46.923Z,19.60
2018-04-10T09:20:49.457Z,21.17
2018-04-10T09:21:51.992Z,20.43
2018-04-10T09:22:54.506Z,19.50
2018-04-10T09:23:57.014Z,18.67
2018-04-10T09:24:59.527Z,20.10
2018-04-10T09:26:02.038Z,19.70
2018-04-10T09:27:04.593Z,18.80
2018-04-10T09:28:07.132Z,19.33
2018-04-10T09:29:10.702Z,18.40
2018-04-10T09:30:13.172Z,17.77
2018-04-10T09:31:15.742Z,17.97
2018-04-10T09:32:18.346Z,18.47
2018-04-10T09:33:20.858Z,17.70
2018-04-10T09:34:23.359Z,18.27
2018-04-10T09:35:25.854Z,18.67
2018-04-10T09:36:29.129Z,16.90
2018-04-10T09:37:32.409Z,16.80
2018-04-10T09:38:34.921Z,15.13
2018-04-10T09:39:37.424Z,17.00
2018-04-10T09:40:39.983Z,16.60
2018-04-10T09:41:42.474Z,18.90
2018-04-10T09:42:44.991Z,18.80
2018-04-10T09:43:47.515Z,19.17
2018-04-10T09:44:50.048Z,19.13
2018-04-10T09:45:52.553Z,18.87
2018-04-10T09:46:55.057Z,18.67
2018-04-10T09:47:58.336Z,20.27
2018-04-10T09:49:01.609Z,18.50
2018-04-10T09:50:04.104Z,19.57
2018-04-10T09:51:07.379Z,19.93
2018-04-10T09:52:10.657Z,19.57
2018-04-10T09:53:13.338Z,19.80
2018-04-10T09:54:15.835Z,20.70
2018-04-10T09:55:18.332Z,19.53
2018-04-10T09:56:20.856Z,19.17
2018-04-10T09:57:24.138Z,16.50
2018-04-10T09:58:26.645Z,18.00
2018-04-10T09:59:29.154Z,19.20
2018-04-10T10:00:37.476Z,20.00
2018-04-10T10:01:40.744Z,17.93
2018-04-10T10:02:43.254Z,18.50
2018-04-10T10:03:46.545Z,17.20
2018-04-10T10:04:49.833Z,16.47
2018-04-10T10:05:53.101Z,14.83
2018-04-10T10:06:55.608Z,16.57
2018-04-10T10:07:58.107Z,17.00
2018-04-10T10:09:00.638Z,15.33
2018-04-10T10:10:03.150Z,14.07
2018-04-10T10:11:05.643Z,14.63
2018-04-10T10:12:08.149Z,13.93
2018-04-10T10:13:10.841Z,15.30
2018-04-10T10:14:13.408Z,13.03
2018-04-10T10:15:15.921Z,14.20
2018-04-10T10:16:18.741Z,13.60
2018-04-10T10:17:21.267Z,16.30
2018-04-10T10:18:23.763Z,16.07
2018-04-10T10:19:27.084Z,14.60
2018-04-10T10:20:29.595Z,14.00
2018-04-10T10:21:32.108Z,14.90
2018-04-10T10:22:35.382Z,14.13
2018-04-10T10:23:38.649Z,16.67
2018-04-10T10:24:42.687Z,15.87
2018-04-10T10:25:45.961Z,13.30
2018-04-10T10:26:49.240Z,12.70
2018-04-10T10:27:51.758Z,12.50
2018-04-10T10:28:54.278Z,14.27
2018-04-10T10:29:56.832Z,16.10
2018-04-10T10:30:59.346Z,16.60
2018-04-10T10:32:02.626Z,16.53
2018-04-10T10:33:05.892Z,17.63
2018-04-10T10:34:08.415Z,15.67
2018-04-10T10:35:10.956Z,16.50
2018-04-10T10:36:14.241Z,14.10
2018-04-10T10:37:16.778Z,14.03
2018-04-10T10:38:19.310Z,15.03
2018-04-10T10:39:21.825Z,13.60
2018-04-10T10:40:24.331Z,16.30
2018-04-10T10:41:27.593Z,14.27
2018-04-10T10:42:30.092Z,18.07
2018-04-10T10:43:33.368Z,16.63
2018-04-10T10:44:36.653Z,16.50
2018-04-10T10:45:39.153Z,16.17
2018-04-10T10:46:41.710Z,18.37
2018-04-10T10:47:44.232Z,19.37
2018-04-10T10:48:46.773Z,18.53
2018-04-10T10:49:49.280Z,18.20
2018-04-10T10:50:51.788Z,20.17
2018-04-10T10:51:55.083Z,19.27
2018-04-10T10:52:58.356Z,20.07
2018-04-10T10:54:00.886Z,18.20
2018-04-10T10:55:03.384Z,19.57
2018-04-10T10:56:05.925Z,20.60
2018-04-10T10:57:08.457Z,19.03
2018-04-10T10:58:11.811Z,18.73
2018-04-10T10:59:14.328Z,20.07
2018-04-10T11:00:17.596Z,20.87
2018-04-10T11:01:20.883Z,22.03
2018-04-10T11:02:24.171Z,21.73
2018-04-10T11:03:27.448Z,23.73
2018-04-10T11:04:29.986Z,22.07
2018-04-10T11:05:32.505Z,23.97
2018-04-10T11:06:35.807Z,23.93
2018-04-10T11:07:38.352Z,22.97
2018-04-10T11:08:40.889Z,22.53
2018-04-10T11:09:43.403Z,21.03
2018-04-10T11:10:46.705Z,22.40
2018-04-10T11:11:50.005Z,22.00
2018-04-10T11:12:52.518Z,22.60
2018-04-10T11:13:55.041Z,23.80
2018-04-10T11:14:57.550Z,21.77
2018-04-10T11:16:00.079Z,22.20
2018-04-10T11:17:02.593Z,20.97
2018-04-10T11:18:05.094Z,21.90
2018-04-10T11:19:07.599Z,21.53
2018-04-10T11:20:10.330Z,22.03
2018-04-10T11:21:13.073Z,21.97
2018-04-10T11:22:15.642Z,23.23
2018-04-10T11:23:18.189Z,22.47
2018-04-10T11:24:20.716Z,23.10
2018-04-10T11:25:24.744Z,25.10
2018-04-10T11:26:28.010Z,23.83
2018-04-10T11:27:30.541Z,23.40
2018-04-10T11:28:33.047Z,24.37
2018-04-10T11:29:35.558Z,23.40
2018-04-10T11:30:38.855Z,24.10
2018-04-10T11:31:41.381Z,23.27
2018-04-10T11:32:43.962Z,26.17
2018-04-10T11:33:46.534Z,24.90
2018-04-10T11:34:49.064Z,23.13
2018-04-10T11:35:51.594Z,26.57
2018-04-10T11:36:54.867Z,23.60
2018-04-10T11:37:57.408Z,25.83
2018-04-10T11:38:59.950Z,24.90
2018-04-10T11:40:02.446Z,23.70
2018-04-10T11:41:04.984Z,25.23
2018-04-10T11:42:07.540Z,25.60
2018-04-10T11:43:10.165Z,26.97
2018-04-10T11:44:12.891Z,26.67
2018-04-10T11:45:15.682Z,26.55
2018-04-10T11:46:18.359Z,28.67
2018-04-10T11:47:20.971Z,27.17
2018-04-10T11:48:23.524Z,26.85
2018-04-10T11:49:26.054Z,25.17
2018-04-10T11:50:29.339Z,26.65
2018-04-10T11:51:32.601Z,28.17
2018-04-10T11:52:35.190Z,27.45
2018-04-10T11:53:38.502Z,26.35
2018-04-10T11:54:41.070Z,26.37
2018-04-10T11:55:43.613Z,28.62
2018-04-10T11:56:46.138Z,28.12
2018-04-10T11:57:48.670Z,28.35
2018-04-10T11:58:51.982Z,27.55
2018-04-10T11:59:54.507Z,27.58
2018-04-10T12:00:57.013Z,26.37
2018-04-10T12:01:59.570Z,27.65
2018-04-10T12:03:02.870Z,26.08
2018-04-10T12:04:05.409Z,28.98
2018-04-10T12:05:07.946Z,26.50
2018-04-10T12:06:10.654Z,26.20
2018-04-10T12:07:13.252Z,28.10
2018-04-10T12:08:16.543Z,26.60
2018-04-10T12:09:19.773Z,25.77
2018-04-10T12:10:22.305Z,26.17
2018-04-10T12:11:24.831Z,27.00
2018-04-10T12:12:27.337Z,27.67
2018-04-10T12:13:30.647Z,27.55
2018-04-10T12:14:33.320Z,26.80
2018-04-10T12:15:35.827Z,27.00
2018-04-10T12:16:38.341Z,27.25
2018-04-10T12:17:41.616Z,28.60
2018-04-10T12:18:44.906Z,28.02
2018-04-10T12:19:48.246Z,28.30
2018-04-10T12:20:50.798Z,26.42
2018-04-10T12:21:53.324Z,28.98
2018-04-10T12:22:55.849Z,25.70
2018-04-10T12:23:58.365Z,27.92
2018-04-10T12:25:00.932Z,27.60
2018-04-10T12:26:03.483Z,27.40
2018-04-10T12:27:06.005Z,28.08
2018-04-10T12:28:08.557Z,25.27
2018-04-10T12:29:12.214Z,27.48
2018-04-10T12:30:14.769Z,26.62
2018-04-10T12:31:17.303Z,26.80
2018-04-10T12:32:20.602Z,25.73
2018-04-10T12:33:23.883Z,28.53
2018-04-10T12:34:27.181Z,27.37
2018-04-10T12:35:30.475Z,27.55
2018-04-10T12:36:33.792Z,26.13
2018-04-10T12:37:36.321Z,25.62
2018-04-10T12:38:38.851Z,25.20
2018-04-10T12:39:41.394Z,26.00
2018-04-10T12:40:43.919Z,25.85
2018-04-10T12:41:46.572Z,24.12
2018-04-10T12:42:49.219Z,26.87
2018-04-10T12:43:51.823Z,26.40
2018-04-10T12:44:54.377Z,24.08
2018-04-10T12:45:56.895Z,24.27
2018-04-10T12:47:00.199Z,23.80
2018-04-10T12:48:02.715Z,24.92
2018-04-10T12:49:05.247Z,24.10
2018-04-10T12:50:07.756Z,23.27
2018-04-10T12:51:10.472Z,24.10
2018-04-10T12:52:13.997Z,22.60
2018-04-10T12:53:16.666Z,24.67
2018-04-10T12:54:19.195Z,25.90
2018-04-10T12:55:21.763Z,24.85
2018-04-10T12:56:24.297Z,25.98
2018-04-10T12:57:26.830Z,24.83
2018-04-10T12:58:30.113Z,25.48
2018-04-10T12:59:33.405Z,26.08
2018-04-10T13:00:36.710Z,26.00
2018-04-10T13:01:39.238Z,25.83
2018-04-10T13:02:43.264Z,25.10
2018-04-10T13:03:46.770Z,26.05
2018-04-10T13:04:49.341Z,24.98
2018-04-10T13:05:52.644Z,27.30
2018-04-10T13:06:55.175Z,26.90
2018-04-10T13:07:58.505Z,27.30
2018-04-10T13:09:01.056Z,29.55
2018-04-10T13:10:04.351Z,28.67
2018-04-10T13:11:07.637Z,27.48
2018-04-10T13:12:10.438Z,25.70
2018-04-10T13:13:12.993Z,27.33
2018-04-10T13:14:15.588Z,27.83
2018-04-10T13:15:18.336Z,26.67
2018-04-10T13:16:21.606Z,27.87
2018-04-10T13:17:24.909Z,26.98
2018-04-10T13:18:28.209Z,30.05
2018-04-10T13:19:30.735Z,23.45
2018-04-10T13:20:33.264Z,25.48
2018-04-10T13:21:35.789Z,26.05
2018-04-10T13:22:38.372Z,26.05
2018-04-10T13:23:40.893Z,27.27
2018-04-10T13:24:43.544Z,27.35
2018-04-10T13:25:46.285Z,27.42
2018-04-10T13:26:49.576Z,25.65
2018-04-10T13:27:52.895Z,27.60
2018-04-10T13:28:55.475Z,27.08
2018-04-10T13:29:58.000Z,26.75
2018-04-10T13:31:00.541Z,26.65
2018-04-10T13:32:03.084Z,26.27